createdAt,value
2022-11-17T00:00:22.320Z,70.05
2022-11-17T00:02:50.068Z,68.71
2022-11-17T00:05:19.298Z,68.92
2022-11-17T00:07:48.874Z,69.10
2022-11-17T00:10:17.658Z,69.57
2022-11-17T00:13:03.085Z,69.95
2022-11-17T00:15:30.937Z,69.98
2022-11-17T00:18:16.348Z,70.52
2022-11-17T00:21:02.974Z,70.44
2022-11-17T00:23:47.172Z,70.26
2022-11-17T00:26:15.936Z,70.34
2022-11-17T00:28:43.578Z,70.67
2022-11-17T00:31:30.149Z,70.68
2022-11-17T00:34:07.472Z,69.10
2022-11-17T00:36:39.324Z,68.67
2022-11-17T00:39:07.886Z,68.94
2022-11-17T00:41:35.888Z,68.38
2022-11-17T00:44:03.818Z,67.77
2022-11-17T00:46:31.860Z,68.87
2022-11-17T00:48:59.709Z,69.11
2022-11-17T00:51:27.498Z,69.05
2022-11-17T00:53:56.837Z,69.45
2022-11-17T00:56:25.529Z,69.55
2022-11-17T00:58:53.602Z,69.86
2022-11-17T01:01:21.754Z,70.17
2022-11-17T01:03:49.824Z,70.72
2022-11-17T01:06:20.286Z,70.60
2022-11-17T01:08:48.198Z,69.21
2022-11-17T01:11:18.916Z,69.19
2022-11-17T01:13:48.433Z,69.24
2022-11-17T01:16:17.979Z,69.17
2022-11-17T01:18:49.771Z,69.13
2022-11-17T01:21:19.714Z,69.15
2022-11-17T01:23:49.955Z,69.12
2022-11-17T01:26:20.865Z,68.74
2022-11-17T01:28:49.650Z,69.21
2022-11-17T01:31:19.379Z,69.31
2022-11-17T01:33:47.415Z,69.83
2022-11-17T01:36:17.681Z,69.82
2022-11-17T01:38:45.886Z,69.25
2022-11-17T01:41:16.641Z,69.09
2022-11-17T01:43:47.703Z,68.37
2022-11-17T01:46:26.275Z,68.17
2022-11-17T01:48:57.745Z,67.85
2022-11-17T01:51:26.084Z,67.85
2022-11-17T01:53:53.808Z,67.92
2022-11-17T01:56:28.202Z,67.56
2022-11-17T01:59:03.825Z,67.86
2022-11-17T02:01:32.369Z,68.17
2022-11-17T02:04:00.653Z,67.99
2022-11-17T02:06:33.158Z,67.99
2022-11-17T02:09:04.501Z,68.66
2022-11-17T02:11:36.054Z,69.11
2022-11-17T02:14:05.997Z,67.57
2022-11-17T02:16:33.630Z,68.35
2022-11-17T02:19:01.303Z,68.52
2022-11-17T02:22:04.666Z,68.13
2022-11-17T02:24:54.796Z,69.00
2022-11-17T02:27:46.120Z,68.74
2022-11-17T02:30:17.698Z,69.23
2022-11-17T02:32:58.843Z,69.56
2022-11-17T02:35:34.706Z,69.35
2022-11-17T02:38:12.730Z,68.64
2022-11-17T02:40:45.159Z,69.05
2022-11-17T02:43:41.900Z,69.53
2022-11-17T02:46:15.513Z,68.93
2022-11-17T02:48:47.303Z,69.33
2022-11-17T02:51:19.450Z,69.99
2022-11-17T02:53:47.921Z,70.46
2022-11-17T02:56:15.521Z,70.67
2022-11-17T02:58:43.185Z,69.46
2022-11-17T03:01:38.937Z,70.11
2022-11-17T03:04:38.129Z,70.81
2022-11-17T03:07:18.530Z,71.14
2022-11-17T03:09:53.901Z,71.77
2022-11-17T03:12:30.329Z,71.79
2022-11-17T03:15:05.499Z,69.40
2022-11-17T03:17:47.155Z,68.90
2022-11-17T03:20:20.623Z,68.92
2022-11-17T03:22:54.447Z,69.35
2022-11-17T03:25:28.105Z,69.97
2022-11-17T03:28:00.215Z,70.43
2022-11-17T03:30:34.610Z,69.18
2022-11-17T03:33:11.174Z,69.06
2022-11-17T03:35:45.116Z,68.46
2022-11-17T03:38:19.697Z,67.49
2022-11-17T03:40:49.924Z,68.17
2022-11-17T03:43:19.094Z,68.20
2022-11-17T03:45:50.582Z,68.25
2022-11-17T03:48:24.856Z,68.65
2022-11-17T03:50:58.139Z,68.71
2022-11-17T03:53:28.838Z,68.02
2022-11-17T03:56:02.253Z,68.48
2022-11-17T03:58:34.373Z,68.25
2022-11-17T04:01:06.782Z,68.23
2022-11-17T04:03:38.289Z,68.84
2022-11-17T04:06:06.420Z,69.01
2022-11-17T04:08:34.021Z,68.95
2022-11-17T04:11:21.510Z,69.10
2022-11-17T04:14:06.812Z,68.72
2022-11-17T04:16:34.370Z,68.62
2022-11-17T04:19:03.454Z,68.62
2022-11-17T04:21:31.078Z,68.96
2022-11-17T04:23:58.727Z,69.35
2022-11-17T04:26:44.053Z,69.03
2022-11-17T04:29:11.678Z,69.26
2022-11-17T04:31:39.290Z,68.64
2022-11-17T04:34:08.284Z,68.42
2022-11-17T04:36:37.784Z,68.40
2022-11-17T04:39:05.583Z,68.00
2022-11-17T04:41:52.986Z,68.01
2022-11-17T04:44:22.167Z,68.34
2022-11-17T04:46:49.868Z,68.76
2022-11-17T04:49:20.236Z,67.62
2022-11-17T04:51:48.462Z,67.80
2022-11-17T04:54:20.916Z,67.72
2022-11-17T04:56:49.081Z,67.53
2022-11-17T04:59:16.757Z,67.61
2022-11-17T05:01:44.663Z,67.97
2022-11-17T05:04:13.832Z,67.70
2022-11-17T05:06:44.663Z,67.95
2022-11-17T05:09:14.401Z,68.13
2022-11-17T05:12:00.495Z,68.32
2022-11-17T05:14:29.161Z,68.78
2022-11-17T05:17:11.592Z,68.85
2022-11-17T05:19:44.148Z,68.86
2022-11-17T05:22:35.018Z,68.61
2022-11-17T05:25:02.992Z,68.63
2022-11-17T05:27:30.733Z,68.38
2022-11-17T05:29:58.356Z,68.68
2022-11-17T05:32:26.193Z,68.80
2022-11-17T05:34:53.814Z,69.01
2022-11-17T05:37:22.747Z,69.34
2022-11-17T05:39:50.379Z,69.97
2022-11-17T05:42:20.716Z,68.65
2022-11-17T05:44:48.971Z,68.83
2022-11-17T05:47:16.569Z,69.21
2022-11-17T05:49:44.256Z,69.36
2022-11-17T05:52:11.955Z,69.71
2022-11-17T05:54:40.891Z,69.80
2022-11-17T05:57:13.065Z,70.13
2022-11-17T05:59:46.323Z,70.44
2022-11-17T06:02:19.019Z,69.96
2022-11-17T06:04:47.233Z,70.38
2022-11-17T06:07:14.986Z,70.65
2022-11-17T06:09:44.033Z,70.57
2022-11-17T06:12:12.744Z,70.99
2022-11-17T06:14:40.407Z,71.40
2022-11-17T06:17:21.768Z,71.78
2022-11-17T06:19:54.105Z,71.85
2022-11-17T06:22:21.750Z,71.77
2022-11-17T06:24:50.738Z,71.55
2022-11-17T06:27:18.418Z,70.71
2022-11-17T06:29:46.912Z,70.05
2022-11-17T06:32:15.414Z,69.93
2022-11-17T06:34:43.918Z,70.31
2022-11-17T06:37:12.261Z,70.89
2022-11-17T06:39:39.911Z,71.25
2022-11-17T06:42:08.870Z,71.56
2022-11-17T06:44:36.456Z,71.28
2022-11-17T06:47:04.063Z,70.88
2022-11-17T06:49:31.626Z,71.02
2022-11-17T06:51:59.236Z,70.87
2022-11-17T06:54:26.784Z,70.52
2022-11-17T06:56:55.390Z,70.79
2022-11-17T06:59:24.638Z,70.97
2022-11-17T07:01:52.224Z,70.55
2022-11-17T07:04:19.847Z,70.77
2022-11-17T07:06:47.454Z,71.10
2022-11-17T07:09:15.076Z,71.34
2022-11-17T07:11:42.693Z,71.35
2022-11-17T07:14:10.329Z,71.56
2022-11-17T07:16:39.319Z,72.23
2022-11-17T07:19:08.315Z,71.88
2022-11-17T07:21:35.961Z,71.85
2022-11-17T07:24:03.846Z,72.27
2022-11-17T07:26:31.499Z,72.31
2022-11-17T07:28:59.113Z,71.78
2022-11-17T07:31:26.766Z,72.04
2022-11-17T07:33:55.939Z,72.06
2022-11-17T07:36:23.865Z,72.11
2022-11-17T07:38:51.460Z,72.44
2022-11-17T07:41:19.141Z,72.58
2022-11-17T07:43:46.706Z,72.47
2022-11-17T07:46:15.858Z,72.24
2022-11-17T07:48:44.412Z,72.05
2022-11-17T07:51:14.068Z,71.61
2022-11-17T07:53:41.683Z,71.78
2022-11-17T07:56:11.381Z,72.30
2022-11-17T07:58:39.705Z,72.43
2022-11-17T08:01:08.568Z,72.26
2022-11-17T08:03:36.233Z,72.13
2022-11-17T08:06:04.330Z,71.62
2022-11-17T08:08:34.304Z,70.91
2022-11-17T08:11:03.705Z,71.30
2022-11-17T08:13:31.371Z,70.71
2022-11-17T08:15:59.965Z,71.34
2022-11-17T08:18:28.314Z,71.39
2022-11-17T08:21:02.419Z,71.44
2022-11-17T08:23:30.066Z,71.54
2022-11-17T08:25:59.151Z,72.06
2022-11-17T08:28:27.023Z,72.45
2022-11-17T08:30:54.605Z,72.29
2022-11-17T08:33:22.302Z,72.50
2022-11-17T08:35:50.029Z,72.79
2022-11-17T08:38:18.308Z,73.13
2022-11-17T08:40:47.647Z,73.70
2022-11-17T08:43:16.607Z,73.88
2022-11-17T08:45:44.262Z,74.27
2022-11-17T08:48:11.925Z,73.89
2022-11-17T08:50:39.613Z,73.67
2022-11-17T08:53:07.202Z,73.43
2022-11-17T08:55:40.886Z,73.61
2022-11-17T08:58:09.226Z,73.50
2022-11-17T09:00:38.512Z,73.56
2022-11-17T09:03:07.460Z,73.89
2022-11-17T09:05:39.323Z,74.17
2022-11-17T09:08:37.989Z,73.35
2022-11-17T09:10:55.037Z,73.82
2022-11-17T09:13:22.915Z,74.52
2022-11-17T09:15:51.955Z,73.11
2022-11-17T09:18:19.567Z,73.00
2022-11-17T09:20:47.183Z,72.22
2022-11-17T09:23:14.835Z,73.61
2022-11-17T09:25:42.510Z,72.99
2022-11-17T09:28:10.135Z,72.13
2022-11-17T09:30:37.915Z,72.18
2022-11-17T09:33:06.924Z,70.95
2022-11-17T09:35:34.559Z,71.35
2022-11-17T09:38:02.368Z,71.22
2022-11-17T09:40:37.453Z,71.34
2022-11-17T09:43:09.654Z,71.68
2022-11-17T09:45:40.209Z,71.73
2022-11-17T09:48:40.152Z,71.83
2022-11-17T09:51:05.746Z,71.93
2022-11-17T09:53:44.273Z,72.15
2022-11-17T09:56:14.519Z,70.90
2022-11-17T09:58:46.910Z,70.84
2022-11-17T10:01:17.055Z,71.01
2022-11-17T10:03:48.255Z,71.72
2022-11-17T10:06:20.397Z,71.72
2022-11-17T10:08:58.208Z,71.43
2022-11-17T10:11:33.657Z,70.34
2022-11-17T10:14:13.121Z,70.51
2022-11-17T10:16:43.679Z,69.41
2022-11-17T10:19:18.918Z,69.58
2022-11-17T10:21:49.709Z,69.72
2022-11-17T10:24:36.027Z,68.20
2022-11-17T10:27:06.141Z,68.42
2022-11-17T10:29:33.839Z,68.46
2022-11-17T10:32:06.735Z,69.23
2022-11-17T10:34:41.680Z,68.67
2022-11-17T10:37:25.768Z,67.90
2022-11-17T10:40:10.049Z,67.90
2022-11-17T10:42:37.687Z,68.69
2022-11-17T10:45:07.235Z,68.40
2022-11-17T10:47:39.210Z,69.00
2022-11-17T10:50:25.199Z,68.06
2022-11-17T10:52:54.074Z,67.43
2022-11-17T10:55:26.199Z,67.20
2022-11-17T10:57:58.260Z,67.97
2022-11-17T11:00:30.222Z,67.35
2022-11-17T11:03:07.151Z,68.61
2022-11-17T11:05:36.151Z,68.12
2022-11-17T11:08:19.537Z,68.31
2022-11-17T11:10:51.502Z,67.63
2022-11-17T11:13:29.431Z,67.88
2022-11-17T11:15:57.162Z,66.24
2022-11-17T11:18:29.845Z,67.14
2022-11-17T11:21:11.235Z,65.60
2022-11-17T11:23:47.802Z,65.69
2022-11-17T11:26:29.937Z,66.35
2022-11-17T11:29:06.636Z,65.91
2022-11-17T11:31:47.707Z,66.14
2022-11-17T11:34:35.548Z,65.93
2022-11-17T11:37:10.560Z,66.54
2022-11-17T11:39:51.689Z,66.64
2022-11-17T11:42:43.313Z,66.42
2022-11-17T11:45:45.607Z,66.38
2022-11-17T11:48:17.901Z,66.75
2022-11-17T11:50:58.874Z,66.62
2022-11-17T11:53:34.041Z,66.86
2022-11-17T11:56:10.471Z,66.74
2022-11-17T11:58:45.922Z,66.33
2022-11-17T12:01:17.180Z,66.08
2022-11-17T12:03:50.767Z,65.75
2022-11-17T12:06:42.680Z,65.74
2022-11-17T12:09:46.364Z,65.26
2022-11-17T12:12:17.419Z,65.01
2022-11-17T12:15:14.997Z,65.12
2022-11-17T12:18:00.339Z,64.22
2022-11-17T12:21:01.140Z,64.77
2022-11-17T12:23:55.030Z,64.01
2022-11-17T12:26:29.208Z,64.51
2022-11-17T12:29:26.243Z,64.00
2022-11-17T12:31:55.424Z,64.19
2022-11-17T12:34:26.275Z,63.52
2022-11-17T12:37:21.796Z,63.02
2022-11-17T12:39:55.409Z,63.00
2022-11-17T12:42:25.018Z,63.30
2022-11-17T12:45:00.373Z,62.37
2022-11-17T12:47:30.463Z,62.81
2022-11-17T12:50:32.895Z,62.35
2022-11-17T12:53:27.297Z,62.01
2022-11-17T12:56:43.268Z,62.13
2022-11-17T12:59:46.808Z,61.53
2022-11-17T13:02:34.026Z,61.11
2022-11-17T13:05:06.009Z,61.18
2022-11-17T13:07:33.651Z,60.60
2022-11-17T13:10:02.721Z,61.26
2022-11-17T13:12:32.034Z,60.87
2022-11-17T13:15:03.874Z,60.88
2022-11-17T13:17:34.327Z,60.34
2022-11-17T13:20:04.114Z,60.89
2022-11-17T13:22:32.421Z,60.83
2022-11-17T13:25:14.010Z,61.06
2022-11-17T13:27:49.244Z,61.33
2022-11-17T13:30:25.593Z,61.06
2022-11-17T13:32:53.450Z,61.01
2022-11-17T13:35:23.462Z,60.88
2022-11-17T13:38:06.137Z,60.65
2022-11-17T13:40:36.413Z,60.98
2022-11-17T13:43:05.709Z,60.79
2022-11-17T13:45:34.756Z,60.18
2022-11-17T13:48:02.450Z,59.77
2022-11-17T13:50:38.193Z,59.43
2022-11-17T13:53:18.450Z,59.27
2022-11-17T13:55:47.592Z,58.71
2022-11-17T13:58:26.949Z,58.41
2022-11-17T14:00:58.381Z,58.32
2022-11-17T14:03:38.254Z,58.42
2022-11-17T14:06:07.588Z,58.00
2022-11-17T14:08:36.732Z,57.72
2022-11-17T14:11:22.198Z,58.21
2022-11-17T14:13:52.245Z,59.07
2022-11-17T14:16:27.559Z,59.11
2022-11-17T14:19:03.622Z,58.90
2022-11-17T14:21:32.287Z,58.97
2022-11-17T14:24:10.532Z,59.19
2022-11-17T14:26:44.493Z,58.97
2022-11-17T14:29:13.409Z,59.11
2022-11-17T14:31:43.153Z,59.83
2022-11-17T14:34:10.794Z,59.73
2022-11-17T14:36:40.221Z,59.36
2022-11-17T14:39:14.788Z,59.03
2022-11-17T14:41:42.758Z,59.46
2022-11-17T14:44:10.417Z,59.91
2022-11-17T14:46:38.376Z,59.82
2022-11-17T14:49:07.824Z,60.52
2022-11-17T14:51:36.298Z,61.04
2022-11-17T14:54:04.139Z,60.24
2022-11-17T14:56:31.719Z,61.04
2022-11-17T14:59:00.631Z,61.02
2022-11-17T15:01:31.041Z,60.52
2022-11-17T15:04:07.000Z,60.07
2022-11-17T15:06:44.724Z,59.62
2022-11-17T15:09:15.763Z,59.65
2022-11-17T15:11:43.372Z,59.84
2022-11-17T15:14:11.831Z,59.78
2022-11-17T15:16:39.487Z,60.17
2022-11-17T15:19:07.271Z,60.42
2022-11-17T15:21:34.878Z,60.02
2022-11-17T15:24:05.048Z,59.88
2022-11-17T15:26:34.087Z,59.80
2022-11-17T15:29:01.677Z,60.36
2022-11-17T15:31:29.353Z,60.39
2022-11-17T15:33:57.320Z,60.23
2022-11-17T15:36:25.316Z,60.50
2022-11-17T15:38:54.023Z,60.40
2022-11-17T15:41:22.964Z,60.47
2022-11-17T15:43:50.563Z,60.48
2022-11-17T15:46:19.952Z,60.78
2022-11-17T15:48:49.160Z,60.46
2022-11-17T15:51:18.634Z,60.81
2022-11-17T15:53:47.812Z,61.45
2022-11-17T15:56:18.826Z,61.50
2022-11-17T15:58:49.143Z,61.46
2022-11-17T16:01:18.578Z,60.63
2022-11-17T16:03:46.487Z,60.46
2022-11-17T16:06:14.173Z,60.57
2022-11-17T16:08:42.085Z,61.29
2022-11-17T16:11:11.037Z,61.23
2022-11-17T16:13:39.085Z,61.02
2022-11-17T16:16:09.348Z,61.18
2022-11-17T16:18:38.555Z,61.65
2022-11-17T16:21:08.481Z,62.53
2022-11-17T16:23:40.059Z,62.46
2022-11-17T16:26:07.934Z,63.08
2022-11-17T16:28:35.887Z,63.75
2022-11-17T16:31:14.811Z,64.25
2022-11-17T16:33:47.271Z,64.74
2022-11-17T16:36:14.946Z,64.71
2022-11-17T16:38:59.866Z,65.19
2022-11-17T16:41:30.038Z,63.00
2022-11-17T16:43:57.641Z,63.28
2022-11-17T16:46:28.707Z,62.45
2022-11-17T16:48:57.355Z,62.23
2022-11-17T16:51:25.133Z,62.02
2022-11-17T16:53:56.836Z,62.19
2022-11-17T16:56:24.732Z,62.02
2022-11-17T16:58:52.744Z,62.77
2022-11-17T17:01:22.147Z,62.52
2022-11-17T17:03:55.922Z,63.07
2022-11-17T17:06:23.525Z,63.36
2022-11-17T17:08:54.950Z,63.57
2022-11-17T17:11:23.193Z,63.37
2022-11-17T17:13:50.846Z,63.97
2022-11-17T17:16:20.620Z,64.28
2022-11-17T17:18:48.493Z,64.30
2022-11-17T17:21:19.560Z,64.92
2022-11-17T17:23:47.180Z,65.49
2022-11-17T17:26:18.223Z,65.91
2022-11-17T17:28:47.004Z,65.80
2022-11-17T17:31:21.016Z,66.53
2022-11-17T17:33:50.657Z,66.90
2022-11-17T17:36:21.513Z,67.58
2022-11-17T17:38:55.027Z,67.11
2022-11-17T17:41:25.048Z,65.62
2022-11-17T17:43:57.462Z,65.18
2022-11-17T17:46:25.616Z,64.98
2022-11-17T17:48:53.492Z,65.05
2022-11-17T17:51:25.013Z,65.32
2022-11-17T17:53:52.728Z,66.00
2022-11-17T17:56:22.055Z,66.18
2022-11-17T17:58:50.786Z,66.29
2022-11-17T18:01:20.917Z,67.11
2022-11-17T18:03:50.197Z,66.82
2022-11-17T18:06:20.995Z,66.62
2022-11-17T18:08:51.295Z,66.44
2022-11-17T18:11:20.476Z,66.69
2022-11-17T18:13:49.834Z,66.54
2022-11-17T18:16:19.541Z,66.73
2022-11-17T18:18:47.163Z,66.83
2022-11-17T18:21:17.151Z,66.18
2022-11-17T18:23:45.306Z,65.72
2022-11-17T18:26:16.616Z,66.33
2022-11-17T18:28:46.732Z,65.95
2022-11-17T18:31:22.444Z,65.86
2022-11-17T18:33:51.835Z,66.24
2022-11-17T18:36:19.462Z,65.65
2022-11-17T18:38:47.530Z,66.07
2022-11-17T18:41:18.381Z,66.42
2022-11-17T18:43:46.495Z,66.10
2022-11-17T18:46:15.570Z,65.76
2022-11-17T18:48:46.365Z,65.64
2022-11-17T18:51:19.847Z,65.44
2022-11-17T18:53:49.160Z,66.01
2022-11-17T18:56:20.152Z,66.63
2022-11-17T18:58:48.093Z,67.06
2022-11-17T19:01:17.863Z,67.38
2022-11-17T19:03:48.052Z,67.79
2022-11-17T19:06:16.910Z,67.49
2022-11-17T19:08:45.135Z,67.17
2022-11-17T19:11:13.324Z,66.66
2022-11-17T19:13:43.357Z,67.14
2022-11-17T19:16:13.184Z,66.71
2022-11-17T19:18:41.223Z,66.41
2022-11-17T19:21:11.422Z,66.22
2022-11-17T19:23:40.571Z,66.17
2022-11-17T19:26:10.548Z,66.32
2022-11-17T19:28:39.275Z,64.78
2022-11-17T19:31:10.874Z,64.80
2022-11-17T19:33:40.215Z,65.67
2022-11-17T19:36:10.199Z,65.70
2022-11-17T19:38:39.131Z,65.31
2022-11-17T19:41:08.452Z,65.50
2022-11-17T19:43:43.373Z,65.50
2022-11-17T19:46:15.994Z,65.17
2022-11-17T19:48:44.407Z,64.85
2022-11-17T19:51:14.891Z,65.41
2022-11-17T19:53:42.581Z,64.99
2022-11-17T19:56:10.611Z,65.99
2022-11-17T19:58:38.399Z,66.33
2022-11-17T20:01:11.460Z,66.04
2022-11-17T20:03:49.869Z,65.84
2022-11-17T20:06:37.744Z,65.85
2022-11-17T20:09:25.831Z,66.06
2022-11-17T20:11:56.809Z,66.08
2022-11-17T20:14:49.515Z,65.29
2022-11-17T20:17:25.601Z,65.31
2022-11-17T20:19:55.475Z,65.94
2022-11-17T20:22:23.254Z,66.20
2022-11-17T20:24:50.938Z,66.19
2022-11-17T20:27:18.506Z,66.59
2022-11-17T20:29:46.176Z,66.11
2022-11-17T20:32:13.797Z,66.27
2022-11-17T20:34:41.388Z,66.49
2022-11-17T20:37:10.401Z,66.49
2022-11-17T20:39:37.970Z,66.79
2022-11-17T20:42:05.578Z,66.84
2022-11-17T20:44:33.164Z,67.54
2022-11-17T20:47:00.756Z,67.67
2022-11-17T20:49:28.939Z,66.75
2022-11-17T20:51:56.570Z,66.18
2022-11-17T20:54:25.548Z,66.36
2022-11-17T20:56:53.586Z,67.35
2022-11-17T20:59:21.492Z,67.90
2022-11-17T21:01:50.458Z,67.12
2022-11-17T21:04:18.059Z,67.03
2022-11-17T21:06:45.671Z,66.92
2022-11-17T21:09:13.278Z,66.71
2022-11-17T21:11:57.306Z,66.97
2022-11-17T21:14:26.768Z,67.07
2022-11-17T21:16:57.380Z,66.36
2022-11-17T21:19:25.392Z,66.78
2022-11-17T21:21:53.661Z,66.74
2022-11-17T21:24:21.771Z,66.34
2022-11-17T21:26:53.387Z,67.22
2022-11-17T21:29:21.244Z,67.26
2022-11-17T21:31:49.116Z,66.18
2022-11-17T21:34:17.820Z,65.97
2022-11-17T21:36:45.420Z,66.20
2022-11-17T21:39:18.497Z,65.77
2022-11-17T21:41:46.563Z,66.60
2022-11-17T21:44:15.727Z,65.67
2022-11-17T21:46:43.499Z,65.94
2022-11-17T21:49:11.126Z,66.13
2022-11-17T21:51:39.289Z,65.54
2022-11-17T21:54:08.112Z,65.45
2022-11-17T21:56:36.487Z,65.85
2022-11-17T21:59:06.578Z,65.68
2022-11-17T22:01:36.540Z,65.62
2022-11-17T22:04:04.888Z,66.19
2022-11-17T22:06:32.526Z,66.57
2022-11-17T22:09:00.830Z,66.81
2022-11-17T22:11:39.020Z,66.31
2022-11-17T22:14:09.415Z,66.76
2022-11-17T22:16:40.276Z,66.52
2022-11-17T22:19:09.076Z,66.62
2022-11-17T22:21:38.292Z,66.38
2022-11-17T22:24:07.704Z,66.04
2022-11-17T22:26:35.868Z,65.78
2022-11-17T22:29:03.551Z,65.43
2022-11-17T22:31:31.307Z,65.66
2022-11-17T22:34:00.349Z,65.80
2022-11-17T22:36:28.031Z,66.80
2022-11-17T22:38:55.712Z,67.18
2022-11-17T22:41:24.526Z,67.39
2022-11-17T22:43:53.277Z,67.19
2022-11-17T22:46:22.595Z,67.96
2022-11-17T22:48:50.701Z,68.58
2022-11-17T22:51:34.127Z,69.59
2022-11-17T22:54:02.036Z,70.12
2022-11-17T22:56:29.593Z,69.94
2022-11-17T22:58:59.863Z,70.52
2022-11-17T23:01:27.885Z,70.51
2022-11-17T23:03:55.582Z,71.05
2022-11-17T23:06:24.597Z,71.05
2022-11-17T23:08:52.423Z,70.61
2022-11-17T23:11:36.459Z,70.70
2022-11-17T23:14:05.348Z,70.84
2022-11-17T23:16:33.238Z,70.92
2022-11-17T23:19:01.259Z,71.01
2022-11-17T23:21:30.326Z,71.57
2022-11-17T23:23:58.035Z,71.64
2022-11-17T23:26:25.742Z,71.27
2022-11-17T23:28:53.393Z,71.07
2022-11-17T23:31:21.056Z,71.33
2022-11-17T23:33:49.473Z,72.35
2022-11-17T23:36:19.118Z,72.90
2022-11-17T23:38:48.856Z,73.58
2022-11-17T23:41:19.382Z,74.47
2022-11-17T23:43:47.564Z,74.76
2022-11-17T23:46:17.475Z,75.36
2022-11-17T23:48:45.974Z,75.41
2022-11-17T23:51:15.781Z,75.17
2022-11-17T23:53:43.547Z,75.22
2022-11-17T23:56:13.237Z,75.00
2022-11-17T23:58:41.354Z,75.04
